Time;durP1;ratioP1;P1;durP2;ratioP2;P2;SDS_P1;SDS_P2;PMS_P1;PMS_P2;Temp;Humidity;BMP_temperature;BMP_pressure;BME280_temperature;BME280_humidity;BME280_pressure;Samples;Min_cycle;Max_cycle;Signal;HPM_P1;HPM_P2
2021/01/10 00:00:19;;;;;;;;;;;19.40;56.90;;;;;;5054709;28;1111;-65
2021/01/10 00:02:45;;;;;;;;;;;19.40;56.90;;;;;;5036344;28;1333;-66
2021/01/10 00:05:11;;;;;;;;;;;19.40;56.90;;;;;;5053754;28;1296;-66
2021/01/10 00:07:37;;;;;;;;;;;19.40;56.90;;;;;;5054220;28;1073;-66
2021/01/10 00:10:06;;;;;;;;;;;19.40;57.00;;;;;;5054162;28;1268;-65
2021/01/10 00:12:32;;;;;;;;;;;19.40;57.00;;;;;;5053878;28;1446;-66
2021/01/10 00:14:57;;;;;;;;;;;19.40;57.00;;;;;;5036119;28;1303;-67
2021/01/10 00:17:23;;;;;;;;;;;19.40;57.00;;;;;;5053643;28;1902;-67
2021/01/10 00:19:48;;;;;;;;;;;19.40;57.00;;;;;;5053668;28;1268;-66
2021/01/10 00:22:14;;;;;;;;;;;19.40;57.00;;;;;;5036674;28;1265;-66
2021/01/10 00:24:40;;;;;;;;;;;19.40;57.00;;;;;;5053513;28;1410;-66
2021/01/10 00:27:06;;;;;;;;;;;19.40;57.10;;;;;;5053811;28;1591;-66
2021/01/10 00:29:31;;;;;;;;;;;19.40;57.00;;;;;;5053711;28;1410;-66
2021/01/10 00:31:57;;;;;;;;;;;19.40;57.00;;;;;;5053325;28;1345;-67
2021/01/10 00:34:22;;;;;;;;;;;19.40;57.10;;;;;;5053507;28;1263;-66
2021/01/10 00:36:48;;;;;;;;;;;19.40;57.10;;;;;;5053578;28;1969;-66
2021/01/10 00:39:13;;;;;;;;;;;19.40;57.10;;;;;;5053892;28;1263;-67
2021/01/10 00:41:39;;;;;;;;;;;19.40;57.10;;;;;;5053797;28;1279;-67
2021/01/10 00:44:05;;;;;;;;;;;19.40;57.10;;;;;;5052250;28;1327;-66
2021/01/10 00:46:33;;;;;;;;;;;19.40;57.10;;;;;;5053906;28;1283;-68
2021/01/10 00:48:59;;;;;;;;;;;19.30;57.00;;;;;;5053635;28;1243;-68
2021/01/10 00:51:25;;;;;;;;;;;19.40;57.10;;;;;;5053460;28;1202;-68
2021/01/10 00:53:50;;;;;;;;;;;19.40;57.10;;;;;;5052536;28;1361;-67
2021/01/10 00:56:16;;;;;;;;;;;19.40;57.10;;;;;;5053159;28;1894;-68
2021/01/10 00:58:41;;;;;;;;;;;19.30;57.10;;;;;;5052985;28;1373;-68
2021/01/10 01:01:07;;;;;;;;;;;19.30;57.00;;;;;;5052999;28;1317;-68
2021/01/10 01:03:32;;;;;;;;;;;19.30;57.10;;;;;;5052576;28;1335;-67
2021/01/10 01:05:57;;;;;;;;;;;19.30;57.10;;;;;;5053333;28;1343;-67
2021/01/10 01:08:23;;;;;;;;;;;19.30;57.10;;;;;;5053101;28;1270;-68
2021/01/10 01:10:48;;;;;;;;;;;19.30;57.10;;;;;;5053182;28;1308;-68
2021/01/10 01:13:14;;;;;;;;;;;19.30;57.10;;;;;;5035133;28;1258;-68
2021/01/10 01:15:40;;;;;;;;;;;19.30;57.10;;;;;;5033209;28;1359;-67
2021/01/10 01:18:06;;;;;;;;;;;19.30;57.10;;;;;;5052839;28;1902;-67
2021/01/10 01:20:31;;;;;;;;;;;19.30;57.10;;;;;;5052779;28;1359;-67
2021/01/10 01:22:57;;;;;;;;;;;19.30;57.10;;;;;;5052832;28;1381;-67
2021/01/10 01:25:22;;;;;;;;;;;19.30;57.10;;;;;;5052490;28;1283;-67
2021/01/10 01:27:48;;;;;;;;;;;19.30;57.10;;;;;;5052606;28;1373;-67
2021/01/10 01:30:13;;;;;;;;;;;19.30;57.10;;;;;;5051612;28;1302;-68
2021/01/10 01:32:39;;;;;;;;;;;19.30;57.20;;;;;;5052866;28;1351;-68
2021/01/10 01:35:05;;;;;;;;;;;19.30;57.20;;;;;;5052429;28;1413;-68
2021/01/10 01:37:30;;;;;;;;;;;19.30;57.20;;;;;;5052405;28;2001;-68
2021/01/10 01:39:55;;;;;;;;;;;19.30;57.20;;;;;;5052731;28;1199;-68
2021/01/10 01:42:21;;;;;;;;;;;19.30;57.20;;;;;;5052569;28;1357;-68
2021/01/10 01:44:46;;;;;;;;;;;19.30;57.20;;;;;;5052038;28;1334;-68
2021/01/10 01:47:13;;;;;;;;;;;19.30;57.30;;;;;;5052205;28;1307;-67
2021/01/10 01:49:39;;;;;;;;;;;19.30;57.30;;;;;;5035022;28;1336;-68
2021/01/10 01:52:04;;;;;;;;;;;19.30;57.30;;;;;;5051840;28;1236;-68
2021/01/10 01:54:30;;;;;;;;;;;19.30;57.30;;;;;;5034403;28;1335;-68
2021/01/10 01:56:55;;;;;;;;;;;19.20;57.20;;;;;;5052065;28;1989;-68
2021/01/10 01:59:21;;;;;;;;;;;19.20;57.20;;;;;;5034440;28;1078;-68
2021/01/10 02:01:46;;;;;;;;;;;19.20;57.20;;;;;;5051956;28;1244;-68
2021/01/10 02:04:15;;;;;;;;;;;19.20;57.20;;;;;;5034304;28;1350;-67
2021/01/10 02:06:41;;;;;;;;;;;19.20;57.30;;;;;;5034085;28;992;-69
2021/01/10 02:09:07;;;;;;;;;;;19.20;57.30;;;;;;5034240;28;1342;-69
2021/01/10 02:11:33;;;;;;;;;;;19.20;57.30;;;;;;5034556;28;1299;-69
2021/01/10 02:14:00;;;;;;;;;;;19.20;57.30;;;;;;5033973;28;1360;-68
2021/01/10 02:16:25;;;;;;;;;;;19.20;57.30;;;;;;5033987;28;1906;-68
2021/01/10 02:18:51;;;;;;;;;;;19.20;57.30;;;;;;5052369;28;1048;-68
2021/01/10 02:21:16;;;;;;;;;;;19.20;57.30;;;;;;5034276;28;1337;-68
2021/01/10 02:23:41;;;;;;;;;;;19.20;57.30;;;;;;5033539;28;1349;-68
2021/01/10 02:26:07;;;;;;;;;;;19.20;57.30;;;;;;5034093;28;1399;-68
2021/01/10 02:28:32;;;;;;;;;;;19.20;57.30;;;;;;5017615;28;1292;-68
2021/01/10 02:31:01;;;;;;;;;;;19.20;57.30;;;;;;5051668;28;1272;-68
2021/01/10 02:33:28;;;;;;;;;;;19.20;57.30;;;;;;5017082;28;1365;-68
2021/01/10 02:35:53;;;;;;;;;;;19.20;57.30;;;;;;5033420;28;1989;-68
2021/01/10 02:38:57;;;;;;;;;;;19.20;57.30;;;;;;5034432;28;1404;-68
2021/01/10 02:41:29;;;;;;;;;;;19.20;57.30;;;;;;5011104;28;1477;-69
2021/01/10 02:44:07;;;;;;;;;;;19.20;57.30;;;;;;5013425;28;1320;-69
2021/01/10 02:46:32;;;;;;;;;;;19.20;57.30;;;;;;5038563;28;1286;-69
2021/01/10 02:48:58;;;;;;;;;;;19.20;57.30;;;;;;5037833;28;1707;-69
2021/01/10 02:51:23;;;;;;;;;;;19.20;57.30;;;;;;5038065;28;1285;-68
2021/01/10 02:53:49;;;;;;;;;;;19.20;57.30;;;;;;5055111;28;1294;-69
2021/01/10 02:56:14;;;;;;;;;;;19.20;57.40;;;;;;5055327;28;1910;-67
2021/01/10 02:58:39;;;;;;;;;;;19.20;57.40;;;;;;5037717;28;1299;-68
2021/01/10 03:01:05;;;;;;;;;;;19.20;57.40;;;;;;5037604;28;1060;-68
2021/01/10 03:03:31;;;;;;;;;;;19.20;57.40;;;;;;5037173;28;1358;-69
2021/01/10 03:05:56;;;;;;;;;;;19.20;57.40;;;;;;5055034;28;1277;-68
2021/01/10 03:08:22;;;;;;;;;;;19.20;57.40;;;;;;5037852;28;1289;-68
2021/01/10 03:10:48;;;;;;;;;;;19.20;57.40;;;;;;5037293;28;1367;-68
2021/01/10 03:13:14;;;;;;;;;;;19.20;57.40;;;;;;5036807;28;1385;-68
2021/01/10 03:15:39;;;;;;;;;;;19.20;57.40;;;;;;5037160;28;1299;-68
2021/01/10 03:18:23;;;;;;;;;;;19.20;57.40;;;;;;5055171;28;1965;-68
2021/01/10 03:20:48;;;;;;;;;;;19.20;57.40;;;;;;5037149;28;1335;-68
2021/01/10 03:23:14;;;;;;;;;;;19.20;57.40;;;;;;5055164;28;1378;-68
2021/01/10 03:25:40;;;;;;;;;;;19.10;57.40;;;;;;5036441;28;1279;-68
2021/01/10 03:28:05;;;;;;;;;;;19.10;57.40;;;;;;5055331;28;1347;-68
2021/01/10 03:30:31;;;;;;;;;;;19.10;57.40;;;;;;5037677;28;1330;-68
2021/01/10 03:32:56;;;;;;;;;;;19.10;57.40;;;;;;5054516;28;1320;-67
2021/01/10 03:35:22;;;;;;;;;;;19.10;57.40;;;;;;5054907;28;1260;-67
2021/01/10 03:37:47;;;;;;;;;;;19.10;57.40;;;;;;5036971;28;1894;-68
2021/01/10 03:40:13;;;;;;;;;;;19.10;57.40;;;;;;5054890;28;1288;-69
2021/01/10 03:42:38;;;;;;;;;;;19.10;57.40;;;;;;5054101;28;1363;-67
2021/01/10 03:45:04;;;;;;;;;;;19.10;57.40;;;;;;5035930;28;1263;-68
2021/01/10 03:47:30;;;;;;;;;;;19.10;57.40;;;;;;5036504;28;1367;-67
2021/01/10 03:49:55;;;;;;;;;;;19.10;57.40;;;;;;5054372;28;1278;-68
2021/01/10 03:52:21;;;;;;;;;;;19.10;57.50;;;;;;5054147;28;1328;-68
2021/01/10 03:54:46;;;;;;;;;;;19.10;57.40;;;;;;5053421;28;1271;-68
2021/01/10 03:57:12;;;;;;;;;;;19.10;57.40;;;;;;5053691;28;1910;-69
2021/01/10 03:59:37;;;;;;;;;;;19.10;57.40;;;;;;5054780;28;1345;-68
2021/01/10 04:02:02;;;;;;;;;;;19.10;57.50;;;;;;5054896;28;1305;-68
2021/01/10 04:04:28;;;;;;;;;;;19.10;57.50;;;;;;5054437;28;1311;-67
2021/01/10 04:06:53;;;;;;;;;;;19.10;57.50;;;;;;5054294;28;1353;-67
2021/01/10 04:09:19;;;;;;;;;;;19.10;57.50;;;;;;5054512;28;1350;-67
2021/01/10 04:11:44;;;;;;;;;;;19.10;57.50;;;;;;5053682;28;1323;-67
2021/01/10 04:14:10;;;;;;;;;;;19.10;57.50;;;;;;5053958;28;1282;-68
2021/01/10 04:16:35;;;;;;;;;;;19.10;57.40;;;;;;5053577;28;1961;-67
2021/01/10 04:19:01;;;;;;;;;;;19.10;57.40;;;;;;5054180;28;1275;-68
2021/01/10 04:21:35;;;;;;;;;;;19.10;57.40;;;;;;5036052;28;1373;-67
2021/01/10 04:24:01;;;;;;;;;;;19.10;57.40;;;;;;5053620;28;1310;-68
2021/01/10 04:26:27;;;;;;;;;;;19.10;57.40;;;;;;5053291;28;1256;-68
2021/01/10 04:28:53;;;;;;;;;;;19.10;57.30;;;;;;5036342;28;1402;-68
2021/01/10 04:31:18;;;;;;;;;;;19.20;57.30;;;;;;5053318;28;1338;-68
2021/01/10 04:33:43;;;;;;;;;;;19.20;57.30;;;;;;5035511;28;1291;-68
2021/01/10 04:36:09;;;;;;;;;;;19.20;57.20;;;;;;5053443;28;1957;-68
2021/01/10 04:38:34;;;;;;;;;;;19.20;57.20;;;;;;5054128;28;1279;-68
2021/01/10 04:41:00;;;;;;;;;;;19.20;57.20;;;;;;5053580;28;1356;-67
2021/01/10 04:43:25;;;;;;;;;;;19.20;57.20;;;;;;5053207;28;1397;-67
2021/01/10 04:45:51;;;;;;;;;;;19.20;57.20;;;;;;5053324;28;1316;-68
2021/01/10 04:48:16;;;;;;;;;;;19.20;57.10;;;;;;5036011;28;1288;-68
2021/01/10 04:50:42;;;;;;;;;;;19.20;57.10;;;;;;5053300;28;1293;-68
2021/01/10 04:53:07;;;;;;;;;;;19.20;57.10;;;;;;5035455;28;1373;-68
2021/01/10 04:55:33;;;;;;;;;;;19.20;57.10;;;;;;5053708;28;1357;-68
2021/01/10 04:58:07;;;;;;;;;;;19.20;57.10;;;;;;5053461;28;1906;-68
2021/01/10 05:00:33;;;;;;;;;;;19.20;57.10;;;;;;5053035;28;1254;-67
2021/01/10 05:03:02;;;;;;;;;;;19.20;57.10;;;;;;5053143;28;1367;-69
2021/01/10 05:05:28;;;;;;;;;;;19.20;57.10;;;;;;5034855;28;1356;-69
2021/01/10 05:07:53;;;;;;;;;;;19.20;57.10;;;;;;5034814;28;1346;-68
2021/01/10 05:10:19;;;;;;;;;;;19.20;57.00;;;;;;5035455;28;1355;-68
2021/01/10 05:12:44;;;;;;;;;;;19.20;57.00;;;;;;5053301;28;1370;-68
2021/01/10 05:15:10;;;;;;;;;;;19.20;57.00;;;;;;5053027;28;1324;-68
2021/01/10 05:17:36;;;;;;;;;;;19.30;57.00;;;;;;5052195;28;1906;-68
2021/01/10 05:20:02;;;;;;;;;;;19.20;57.10;;;;;;5052933;28;1291;-68
2021/01/10 05:22:27;;;;;;;;;;;19.30;57.00;;;;;;5031659;28;1480;-67
2021/01/10 05:24:53;;;;;;;;;;;19.30;57.00;;;;;;5045132;28;1308;-67
2021/01/10 05:27:18;;;;;;;;;;;19.30;57.00;;;;;;5032565;28;1247;-67
2021/01/10 05:29:44;;;;;;;;;;;19.30;57.00;;;;;;5045461;28;1294;-68
2021/01/10 05:32:09;;;;;;;;;;;19.30;57.00;;;;;;5033648;28;1364;-67
2021/01/10 05:34:35;;;;;;;;;;;19.30;57.00;;;;;;5046220;28;1433;-68
2021/01/10 05:37:13;;;;;;;;;;;19.30;57.00;;;;;;5044982;28;1969;-68
2021/01/10 05:39:42;;;;;;;;;;;19.30;57.00;;;;;;5023879;28;1351;-68
2021/01/10 05:42:08;;;;;;;;;;;19.30;57.00;;;;;;5043139;28;1195;-67
2021/01/10 05:44:46;;;;;;;;;;;19.30;57.00;;;;;;5042137;28;1331;-67
2021/01/10 05:47:12;;;;;;;;;;;19.30;57.00;;;;;;5044035;28;1228;-68
2021/01/10 05:49:47;;;;;;;;;;;19.30;57.00;;;;;;5032040;28;1196;-68
2021/01/10 05:52:13;;;;;;;;;;;19.30;57.00;;;;;;5043398;28;1200;-68
2021/01/10 05:54:42;;;;;;;;;;;19.30;57.00;;;;;;5043440;28;1294;-68
2021/01/10 05:57:08;;;;;;;;;;;19.30;57.00;;;;;;5046797;28;1967;-68
2021/01/10 05:59:37;;;;;;;;;;;19.30;57.00;;;;;;5044956;28;1195;-68
2021/01/10 06:02:03;;;;;;;;;;;19.30;57.00;;;;;;5011523;28;1268;-67
2021/01/10 06:04:28;;;;;;;;;;;19.30;57.00;;;;;;5039929;28;1346;-68
2021/01/10 06:06:54;;;;;;;;;;;19.30;57.00;;;;;;5031258;28;1241;-67
2021/01/10 06:09:20;;;;;;;;;;;19.30;57.00;;;;;;5042540;28;1607;-68
2021/01/10 06:11:46;;;;;;;;;;;19.30;57.00;;;;;;5045094;28;1192;-68
2021/01/10 06:14:17;;;;;;;;;;;19.30;57.00;;;;;;5044997;28;1290;-68
2021/01/10 06:16:43;;;;;;;;;;;19.30;57.00;;;;;;5035642;28;1898;-68
2021/01/10 06:19:09;;;;;;;;;;;19.30;57.00;;;;;;5032507;28;1149;-69
2021/01/10 06:21:35;;;;;;;;;;;19.30;57.00;;;;;;5035555;28;1687;-67
2021/01/10 06:24:01;;;;;;;;;;;19.30;56.90;;;;;;5045707;28;1290;-68
2021/01/10 06:26:27;;;;;;;;;;;19.30;56.90;;;;;;5048138;28;1282;-68
2021/01/10 06:28:53;;;;;;;;;;;19.30;56.90;;;;;;5046327;28;1534;-68
2021/01/10 06:31:20;;;;;;;;;;;19.30;56.90;;;;;;5047059;28;1207;-68
2021/01/10 06:33:46;;;;;;;;;;;19.30;56.90;;;;;;5037247;28;1383;-67
2021/01/10 06:36:11;;;;;;;;;;;19.30;56.90;;;;;;5055513;28;1957;-69
2021/01/10 06:38:37;;;;;;;;;;;19.30;56.90;;;;;;5056328;28;1248;-67
2021/01/10 06:41:21;;;;;;;;;;;19.30;56.90;;;;;;5038006;28;1319;-69
2021/01/10 06:43:50;;;;;;;;;;;19.30;57.00;;;;;;5054996;28;1284;-68
2021/01/10 06:46:15;;;;;;;;;;;19.30;56.90;;;;;;5056080;28;1060;-67
2021/01/10 06:48:41;;;;;;;;;;;19.30;56.90;;;;;;5056072;28;1442;-65
2021/01/10 06:51:06;;;;;;;;;;;19.30;56.90;;;;;;5055930;28;1202;-65
2021/01/10 06:53:32;;;;;;;;;;;19.30;56.90;;;;;;5037791;28;1280;-66
2021/01/10 06:55:58;;;;;;;;;;;19.30;56.90;;;;;;5055411;28;1301;-67
2021/01/10 06:58:24;;;;;;;;;;;19.30;56.90;;;;;;5037534;28;1104;-66
2021/01/10 07:00:56;;;;;;;;;;;19.30;56.90;;;;;;5055623;28;1351;-66
2021/01/10 07:03:22;;;;;;;;;;;19.40;56.90;;;;;;5055431;28;1404;-66
2021/01/10 07:05:56;;;;;;;;;;;19.30;56.80;;;;;;5055215;28;1275;-67
2021/01/10 07:08:30;;;;;;;;;;;19.40;56.90;;;;;;5055501;28;1343;-65
2021/01/10 07:10:56;;;;;;;;;;;19.40;56.80;;;;;;5054802;28;1275;-66
2021/01/10 07:13:27;;;;;;;;;;;19.40;56.80;;;;;;5037114;28;1567;-66
2021/01/10 07:16:15;;;;;;;;;;;19.30;56.80;;;;;;5053902;28;1273;-66
2021/01/10 07:18:47;;;;;;;;;;;19.40;56.80;;;;;;5055710;28;1383;-66
2021/01/10 07:21:27;;;;;;;;;;;19.40;56.80;;;;;;5036966;28;1319;-66
2021/01/10 07:23:52;;;;;;;;;;;19.30;56.70;;;;;;5054806;28;1361;-66
2021/01/10 07:26:38;;;;;;;;;;;19.30;56.80;;;;;;5054994;28;1293;-65
2021/01/10 07:29:03;;;;;;;;;;;19.40;56.80;;;;;;5055156;28;1235;-65
2021/01/10 07:31:29;;;;;;;;;;;19.40;56.80;;;;;;5054897;28;1394;-66
2021/01/10 07:34:10;;;;;;;;;;;19.40;56.80;;;;;;5054734;28;1395;-66
2021/01/10 07:37:07;;;;;;;;;;;19.40;56.80;;;;;;5054171;28;1914;-67
2021/01/10 07:39:36;;;;;;;;;;;19.30;56.70;;;;;;5031887;28;1371;-66
2021/01/10 07:42:08;;;;;;;;;;;19.30;56.80;;;;;;5037123;28;1336;-65
2021/01/10 07:44:46;;;;;;;;;;;19.30;56.70;;;;;;5041264;28;1263;-66
2021/01/10 07:47:11;;;;;;;;;;;19.40;56.80;;;;;;5054461;28;1162;-67
2021/01/10 07:49:47;;;;;;;;;;;19.40;56.80;;;;;;5054583;28;1318;-66
2021/01/10 07:52:13;;;;;;;;;;;19.40;56.80;;;;;;5019808;28;1355;-66
2021/01/10 07:54:52;;;;;;;;;;;19.40;56.80;;;;;;5054031;28;1326;-65
2021/01/10 07:57:21;;;;;;;;;;;19.30;56.70;;;;;;5054447;28;1993;-66
2021/01/10 07:59:54;;;;;;;;;;;19.40;56.70;;;;;;5054146;28;1296;-67
2021/01/10 08:02:39;;;;;;;;;;;19.40;56.80;;;;;;5036911;28;1342;-66
2021/01/10 08:05:14;;;;;;;;;;;19.40;56.80;;;;;;5031593;28;1962;-65
2021/01/10 08:07:44;;;;;;;;;;;19.40;56.80;;;;;;5034825;28;1104;-65
2021/01/10 08:10:09;;;;;;;;;;;19.40;56.80;;;;;;5053282;28;1302;-66
2021/01/10 08:12:36;;;;;;;;;;;19.30;56.70;;;;;;5053313;28;1322;-67
2021/01/10 08:15:02;;;;;;;;;;;19.40;57.30;;;;;;5035032;28;1288;-65
2021/01/10 08:17:28;;;;;;;;;;;19.40;56.70;;;;;;5034940;28;1894;-65
2021/01/10 08:19:53;;;;;;;;;;;19.30;56.70;;;;;;5052962;28;1087;-66
2021/01/10 08:22:19;;;;;;;;;;;19.40;56.80;;;;;;5035146;28;1249;-66
2021/01/10 08:24:44;;;;;;;;;;;19.40;56.80;;;;;;5034609;28;1599;-65
2021/01/10 08:27:10;;;;;;;;;;;19.40;56.80;;;;;;5052715;28;1091;-66
2021/01/10 08:29:35;;;;;;;;;;;19.30;56.70;;;;;;5034955;28;1256;-65
2021/01/10 08:32:00;;;;;;;;;;;19.30;56.70;;;;;;5034926;28;1268;-67
2021/01/10 08:34:26;;;;;;;;;;;19.40;56.80;;;;;;5034316;28;1413;-65
2021/01/10 08:36:51;;;;;;;;;;;19.30;56.70;;;;;;5052207;28;1961;-68
2021/01/10 08:39:20;;;;;;;;;;;19.30;56.70;;;;;;5051789;28;1108;-66
2021/01/10 08:41:47;;;;;;;;;;;19.40;56.80;;;;;;5052677;28;1254;-65
2021/01/10 08:44:13;;;;;;;;;;;19.40;56.80;;;;;;5052258;28;1296;-66
2021/01/10 08:46:42;;;;;;;;;;;19.40;56.80;;;;;;5052218;28;1386;-65
2021/01/10 08:49:08;;;;;;;;;;;19.40;56.80;;;;;;5034242;28;1354;-68
2021/01/10 08:51:33;;;;;;;;;;;19.40;56.80;;;;;;5039803;28;1943;-65
2021/01/10 08:53:59;;;;;;;;;;;19.40;56.80;;;;;;5050493;28;1298;-66
2021/01/10 08:56:25;;;;;;;;;;;19.40;56.80;;;;;;5048634;28;1914;-65
2021/01/10 08:58:54;;;;;;;;;;;19.40;56.80;;;;;;5051409;28;1233;-68
2021/01/10 09:01:20;;;;;;;;;;;19.40;56.80;;;;;;5044152;28;1127;-66
2021/01/10 09:04:03;;;;;;;;;;;19.40;56.80;;;;;;5051987;28;1356;-65
2021/01/10 09:06:43;;;;;;;;;;;19.30;56.70;;;;;;5051538;28;1308;-65
2021/01/10 09:09:27;;;;;;;;;;;19.40;56.80;;;;;;5018024;28;1321;-66
2021/01/10 09:12:06;;;;;;;;;;;19.40;56.80;;;;;;5051811;28;1289;-65
2021/01/10 09:14:41;;;;;;;;;;;19.30;56.70;;;;;;5033809;28;1382;-66
2021/01/10 09:17:06;;;;;;;;;;;19.30;56.70;;;;;;5051871;28;1902;-66
2021/01/10 09:19:32;;;;;;;;;;;19.40;56.80;;;;;;5051822;28;1258;-65
2021/01/10 09:21:57;;;;;;;;;;;19.40;56.80;;;;;;5033385;28;1190;-65
2021/01/10 09:24:27;;;;;;;;;;;19.40;56.80;;;;;;5033688;28;1284;-66
2021/01/10 09:26:52;;;;;;;;;;;19.40;56.80;;;;;;5033542;28;1268;-65
2021/01/10 09:29:18;;;;;;;;;;;19.40;56.80;;;;;;5052093;28;1327;-65
2021/01/10 09:31:45;;;;;;;;;;;19.40;56.80;;;;;;5033644;28;1317;-65
2021/01/10 09:34:10;;;;;;;;;;;19.40;56.90;;;;;;5047874;28;1978;-67
2021/01/10 09:36:36;;;;;;;;;;;19.40;56.80;;;;;;5029025;28;1957;-65
2021/01/10 09:39:02;;;;;;;;;;;19.40;56.80;;;;;;5034007;28;1308;-65
2021/01/10 09:41:28;;;;;;;;;;;19.30;56.70;;;;;;5051256;28;1259;-66
2021/01/10 09:43:54;;;;;;;;;;;19.40;56.80;;;;;;5050537;28;1568;-65
2021/01/10 09:46:28;;;;;;;;;;;19.40;56.80;;;;;;5033387;28;1257;-64
2021/01/10 09:48:57;;;;;;;;;;;19.40;56.80;;;;;;5051590;28;1297;-65
2021/01/10 09:51:23;;;;;;;;;;;19.40;56.80;;;;;;5050444;28;1146;-65
2021/01/10 09:53:48;;;;;;;;;;;19.40;56.80;;;;;;5033208;28;1343;-65
2021/01/10 09:56:33;;;;;;;;;;;19.40;56.80;;;;;;5033174;28;1914;-64
2021/01/10 09:58:58;;;;;;;;;;;19.40;56.80;;;;;;5051479;28;1323;-65
2021/01/10 10:01:24;;;;;;;;;;;19.40;56.80;;;;;;5050428;28;1388;-65
2021/01/10 10:03:50;;;;;;;;;;;19.30;56.70;;;;;;5032827;28;1436;-65
2021/01/10 10:06:15;;;;;;;;;;;19.40;56.80;;;;;;5051440;28;1267;-66
2021/01/10 10:08:53;;;;;;;;;;;19.40;56.60;;;;;;5051717;28;1270;-65
2021/01/10 10:11:19;;;;;;;;;;;19.40;56.50;;;;;;5051736;28;1246;-65
2021/01/10 10:13:44;;;;;;;;;;;19.50;56.50;;;;;;5033116;28;1270;-65
2021/01/10 10:16:15;;;;;;;;;;;19.50;56.40;;;;;;5050582;28;1906;-65
2021/01/10 10:18:41;;;;;;;;;;;19.70;56.30;;;;;;5051437;28;1020;-64
2021/01/10 10:21:07;;;;;;;;;;;19.80;56.00;;;;;;5033246;28;1270;-65
2021/01/10 10:23:32;;;;;;;;;;;19.90;55.70;;;;;;5050775;28;1314;-65
2021/01/10 10:25:58;;;;;;;;;;;20.00;55.50;;;;;;5050937;28;1301;-65
2021/01/10 10:28:23;;;;;;;;;;;20.10;55.30;;;;;;5051173;28;1268;-65
2021/01/10 10:30:49;;;;;;;;;;;20.20;55.10;;;;;;5050926;28;1318;-65
2021/01/10 10:33:16;;;;;;;;;;;20.30;54.90;;;;;;5050801;28;1415;-65
2021/01/10 10:35:41;;;;;;;;;;;20.30;54.70;;;;;;5050288;28;951;-68
2021/01/10 10:38:07;;;;;;;;;;;20.40;54.60;;;;;;5032804;28;1898;-67
2021/01/10 10:40:33;;;;;;;;;;;20.40;54.50;;;;;;5051152;28;1225;-64
2021/01/10 10:42:58;;;;;;;;;;;20.50;55.00;;;;;;5050793;28;1302;-65
2021/01/10 10:45:23;;;;;;;;;;;20.50;54.30;;;;;;5050459;28;1357;-65
2021/01/10 10:47:49;;;;;;;;;;;20.50;54.20;;;;;;5032524;28;1339;-65
2021/01/10 10:50:14;;;;;;;;;;;20.60;54.20;;;;;;5050858;28;1256;-65
2021/01/10 10:52:40;;;;;;;;;;;20.60;54.00;;;;;;5050790;28;1321;-67
2021/01/10 10:55:06;;;;;;;;;;;20.70;54.00;;;;;;5050410;28;1206;-67
2021/01/10 10:57:31;;;;;;;;;;;20.70;53.90;;;;;;5050567;28;1919;-68
2021/01/10 10:59:57;;;;;;;;;;;20.80;53.80;;;;;;5044420;28;1253;-66
2021/01/10 11:02:23;;;;;;;;;;;20.80;53.70;;;;;;5051948;28;1119;-66
2021/01/10 11:04:49;;;;;;;;;;;20.80;53.70;;;;;;5054187;28;1321;-65
2021/01/10 11:07:15;;;;;;;;;;;20.90;53.60;;;;;;5054080;28;1342;-65
2021/01/10 11:09:40;;;;;;;;;;;20.90;53.50;;;;;;5033855;28;1275;-67
2021/01/10 11:12:09;;;;;;;;;;;20.90;53.40;;;;;;5053804;28;1382;-64
2021/01/10 11:14:35;;;;;;;;;;;21.00;53.40;;;;;;5035440;28;1289;-66
2021/01/10 11:17:03;;;;;;;;;;;21.00;53.30;;;;;;5036373;28;1967;-65
2021/01/10 11:19:28;;;;;;;;;;;21.00;53.30;;;;;;5036671;28;1271;-65
2021/01/10 11:21:53;;;;;;;;;;;21.10;53.20;;;;;;5054025;28;1270;-65
2021/01/10 11:24:19;;;;;;;;;;;21.10;53.10;;;;;;5054188;28;1726;-65
2021/01/10 11:26:45;;;;;;;;;;;21.10;53.10;;;;;;5054463;28;1305;-68
2021/01/10 11:29:10;;;;;;;;;;;21.20;53.10;;;;;;5054290;28;1320;-65
2021/01/10 11:31:36;;;;;;;;;;;21.20;53.00;;;;;;5054567;28;1253;-64
2021/01/10 11:34:02;;;;;;;;;;;21.20;53.00;;;;;;5053658;28;1329;-65
2021/01/10 11:36:28;;;;;;;;;;;21.20;53.00;;;;;;5053644;28;1901;-65
2021/01/10 11:38:53;;;;;;;;;;;21.20;53.00;;;;;;5036142;28;1312;-65
2021/01/10 11:41:22;;;;;;;;;;;21.20;52.90;;;;;;5053511;28;1135;-68
2021/01/10 11:43:48;;;;;;;;;;;21.30;53.00;;;;;;5052887;28;1310;-65
2021/01/10 11:46:13;;;;;;;;;;;21.30;52.90;;;;;;5035779;28;1299;-66
2021/01/10 11:48:41;;;;;;;;;;;21.30;52.90;;;;;;5036092;28;1248;-67
2021/01/10 11:51:07;;;;;;;;;;;21.30;52.90;;;;;;5052881;28;1071;-65
2021/01/10 11:53:32;;;;;;;;;;;21.30;52.90;;;;;;5053502;28;1377;-65
2021/01/10 11:55:58;;;;;;;;;;;21.30;52.90;;;;;;5053223;28;1123;-65
2021/01/10 11:58:23;;;;;;;;;;;21.30;52.80;;;;;;5053381;28;1910;-65
2021/01/10 12:00:50;;;;;;;;;;;21.40;52.90;;;;;;5035382;28;1267;-67
2021/01/10 12:03:15;;;;;;;;;;;21.40;52.80;;;;;;5053380;28;1559;-68
2021/01/10 12:05:41;;;;;;;;;;;21.40;52.80;;;;;;5053733;28;1327;-65
2021/01/10 12:08:06;;;;;;;;;;;21.40;52.80;;;;;;5053234;28;1199;-65
2021/01/10 12:10:32;;;;;;;;;;;21.40;52.80;;;;;;5053746;28;1294;-65
2021/01/10 12:12:58;;;;;;;;;;;21.40;52.80;;;;;;5052974;28;1362;-65
2021/01/10 12:15:24;;;;;;;;;;;21.40;52.80;;;;;;5052483;28;1266;-68
2021/01/10 12:17:49;;;;;;;;;;;21.40;52.80;;;;;;5035114;28;1957;-68
2021/01/10 12:20:15;;;;;;;;;;;21.40;52.80;;;;;;5047931;28;2211;-66
2021/01/10 12:22:40;;;;;;;;;;;21.40;52.80;;;;;;5018336;28;1411;-66
2021/01/10 12:25:06;;;;;;;;;;;21.40;52.90;;;;;;5052863;28;1248;-66
2021/01/10 12:27:32;;;;;;;;;;;21.40;52.90;;;;;;5052743;28;1322;-66
2021/01/10 12:29:57;;;;;;;;;;;21.40;52.90;;;;;;5052720;28;1195;-66
2021/01/10 12:32:23;;;;;;;;;;;21.30;52.90;;;;;;5053092;28;1246;-65
2021/01/10 12:34:48;;;;;;;;;;;21.30;53.00;;;;;;5052662;28;1282;-68
2021/01/10 12:37:17;;;;;;;;;;;21.30;53.00;;;;;;5052500;28;1910;-66
2021/01/10 12:39:43;;;;;;;;;;;21.30;53.10;;;;;;5052433;28;1253;-66
2021/01/10 12:42:08;;;;;;;;;;;21.30;53.10;;;;;;5052282;28;1296;-66
2021/01/10 12:44:34;;;;;;;;;;;21.20;53.10;;;;;;5034694;28;1769;-73
2021/01/10 12:46:59;;;;;;;;;;;21.20;53.20;;;;;;5052428;28;1067;-68
2021/01/10 12:49:25;;;;;;;;;;;21.20;53.20;;;;;;5052532;28;1294;-68
2021/01/10 12:51:50;;;;;;;;;;;21.20;53.30;;;;;;5052398;28;1260;-68
2021/01/10 12:54:15;;;;;;;;;;;21.20;53.30;;;;;;5052413;28;1232;-68
2021/01/10 12:56:41;;;;;;;;;;;21.10;53.40;;;;;;5052443;28;1902;-68
2021/01/10 12:59:06;;;;;;;;;;;21.10;53.40;;;;;;5052440;28;1125;-68
2021/01/10 13:01:34;;;;;;;;;;;21.10;53.50;;;;;;5052450;28;1322;-68
2021/01/10 13:03:59;;;;;;;;;;;21.10;53.60;;;;;;5051856;28;1287;-68
2021/01/10 13:06:25;;;;;;;;;;;21.00;53.60;;;;;;5048678;28;1256;-68
2021/01/10 13:08:50;;;;;;;;;;;21.00;53.70;;;;;;5040116;28;1136;-68
2021/01/10 13:11:20;;;;;;;;;;;21.00;53.70;;;;;;5033889;28;1342;-69
2021/01/10 13:13:45;;;;;;;;;;;20.90;53.80;;;;;;5033716;28;1373;-68
2021/01/10 13:16:11;;;;;;;;;;;20.90;53.80;;;;;;5051156;28;1087;-68
2021/01/10 13:18:37;;;;;;;;;;;20.90;53.90;;;;;;5051487;28;1973;-68
2021/01/10 13:21:05;;;;;;;;;;;20.90;54.00;;;;;;5051575;28;1261;-67
2021/01/10 13:23:31;;;;;;;;;;;20.90;54.00;;;;;;5033681;28;1355;-67
2021/01/10 13:25:56;;;;;;;;;;;20.80;54.00;;;;;;5051088;28;1195;-67
2021/01/10 13:28:22;;;;;;;;;;;20.80;54.00;;;;;;5052203;28;1056;-68
2021/01/10 13:30:47;;;;;;;;;;;20.80;54.10;;;;;;5051790;28;1251;-67
2021/01/10 13:33:13;;;;;;;;;;;20.80;54.10;;;;;;5051276;28;1365;-68
2021/01/10 13:35:38;;;;;;;;;;;20.80;54.20;;;;;;5051283;28;1048;-68
2021/01/10 13:38:04;;;;;;;;;;;20.80;54.30;;;;;;5051125;28;1906;-68
2021/01/10 13:40:29;;;;;;;;;;;20.80;54.30;;;;;;5051858;28;1226;-68
2021/01/10 13:42:55;;;;;;;;;;;20.70;54.30;;;;;;5051743;28;1340;-68
2021/01/10 13:45:20;;;;;;;;;;;20.70;54.30;;;;;;5051606;28;1287;-69
2021/01/10 13:47:46;;;;;;;;;;;20.70;54.30;;;;;;5050940;28;1302;-68
2021/01/10 13:50:11;;;;;;;;;;;20.70;54.40;;;;;;5051340;28;1314;-68
2021/01/10 13:52:37;;;;;;;;;;;20.70;54.40;;;;;;5052164;28;1378;-68
2021/01/10 13:55:06;;;;;;;;;;;20.70;54.40;;;;;;5031793;28;1831;-68
2021/01/10 13:57:32;;;;;;;;;;;20.70;54.50;;;;;;5051163;28;1910;-67
2021/01/10 13:59:58;;;;;;;;;;;20.60;54.50;;;;;;5049687;28;1238;-67
2021/01/10 14:02:23;;;;;;;;;;;20.60;54.50;;;;;;5051690;28;1309;-67
2021/01/10 14:04:49;;;;;;;;;;;20.60;54.50;;;;;;5050326;28;1339;-68
2021/01/10 14:07:14;;;;;;;;;;;20.60;54.50;;;;;;5016445;28;1282;-68
2021/01/10 14:09:40;;;;;;;;;;;20.60;54.50;;;;;;5051468;28;1301;-68
2021/01/10 14:12:06;;;;;;;;;;;20.50;54.60;;;;;;5051638;28;1254;-67
2021/01/10 14:14:31;;;;;;;;;;;20.50;54.60;;;;;;5051129;28;1332;-67
2021/01/10 14:16:57;;;;;;;;;;;20.50;54.70;;;;;;5050689;28;1955;-67
2021/01/10 14:19:22;;;;;;;;;;;20.50;54.70;;;;;;5033026;28;1475;-68
2021/01/10 14:21:47;;;;;;;;;;;20.50;54.80;;;;;;5051183;28;1255;-66
2021/01/10 14:24:17;;;;;;;;;;;20.50;54.80;;;;;;5051149;28;1315;-68
2021/01/10 14:26:46;;;;;;;;;;;20.50;54.90;;;;;;5050857;28;981;-67
2021/01/10 14:29:12;;;;;;;;;;;20.50;54.90;;;;;;5050682;28;1279;-67